createdAt,value
2022-07-29T00:01:43.895Z,3.95
2022-07-29T00:04:12.919Z,2.90
2022-07-29T00:06:41.741Z,3.25
2022-07-29T00:09:10.055Z,2.67
2022-07-29T00:11:40.038Z,3.17
2022-07-29T00:14:08.351Z,3.50
2022-07-29T00:16:37.030Z,3.03
2022-07-29T00:19:05.598Z,2.45
2022-07-29T00:21:36.127Z,3.00
2022-07-29T00:24:04.560Z,2.70
2022-07-29T00:26:33.811Z,3.58
2022-07-29T00:31:53.644Z,3.33
2022-07-29T00:34:40.268Z,3.15
2022-07-29T00:39:36.196Z,2.97
2022-07-29T00:42:05.320Z,3.00
2022-07-29T00:44:38.402Z,2.97
2022-07-29T00:47:07.440Z,3.08
2022-07-29T00:49:36.125Z,2.90
2022-07-29T00:52:04.789Z,3.30
2022-07-29T00:54:33.426Z,3.70
2022-07-29T00:57:02.299Z,3.53
2022-07-29T00:59:35.176Z,3.40
2022-07-29T01:02:05.464Z,3.30
2022-07-29T01:04:34.086Z,2.65
2022-07-29T01:07:03.627Z,3.20
2022-07-29T01:09:42.753Z,3.60
2022-07-29T01:12:18.170Z,3.28
2022-07-29T01:14:47.216Z,3.03
2022-07-29T01:17:22.727Z,3.08
2022-07-29T01:19:58.639Z,3.60
2022-07-29T01:23:16.217Z,3.38
2022-07-29T01:25:58.877Z,3.35
2022-07-29T01:28:48.957Z,3.08
2022-07-29T01:31:23.753Z,3.20
2022-07-29T01:33:59.554Z,3.00
2022-07-29T01:36:33.907Z,3.05
2022-07-29T01:39:09.956Z,3.10
2022-07-29T01:41:41.515Z,2.88
2022-07-29T01:44:19.171Z,2.80
2022-07-29T01:46:55.394Z,3.17
2022-07-29T01:49:28.538Z,2.80
2022-07-29T01:52:00.297Z,3.30
2022-07-29T01:54:33.812Z,2.80
2022-07-29T01:57:03.622Z,3.08
2022-07-29T01:59:35.130Z,2.97
2022-07-29T02:02:06.165Z,2.97
2022-07-29T02:04:37.042Z,3.10
2022-07-29T02:07:08.402Z,3.50
2022-07-29T02:09:39.076Z,3.10
2022-07-29T02:12:08.615Z,3.03
2022-07-29T02:14:40.945Z,2.75
2022-07-29T02:17:09.493Z,4.25
2022-07-29T02:19:44.503Z,4.20
2022-07-29T02:22:13.854Z,3.25
2022-07-29T02:24:43.685Z,4.38
2022-07-29T02:27:13.363Z,4.30
2022-07-29T02:29:44.622Z,5.07
2022-07-29T02:32:15.191Z,5.28
2022-07-29T02:34:44.242Z,4.05
2022-07-29T02:37:13.941Z,3.97
2022-07-29T02:39:45.051Z,4.10
2022-07-29T02:42:17.052Z,5.13
2022-07-29T02:44:46.790Z,3.78
2022-07-29T02:47:20.551Z,4.32
2022-07-29T02:49:55.253Z,4.15
2022-07-29T02:55:09.039Z,4.60
2022-07-29T02:57:54.794Z,3.88
2022-07-29T03:00:28.344Z,4.28
2022-07-29T03:03:00.788Z,3.55
2022-07-29T03:05:30.541Z,3.60
2022-07-29T03:08:02.878Z,3.67
2022-07-29T03:10:31.758Z,3.95
2022-07-29T03:13:01.494Z,4.00
2022-07-29T03:15:31.720Z,3.53
2022-07-29T03:18:01.391Z,3.55
2022-07-29T03:20:29.641Z,3.60
2022-07-29T03:22:57.851Z,3.42
2022-07-29T03:25:26.222Z,3.22
2022-07-29T03:27:54.327Z,3.10
2022-07-29T03:30:22.706Z,3.22
2022-07-29T03:32:53.531Z,3.28
2022-07-29T03:35:22.140Z,3.22
2022-07-29T03:37:50.411Z,3.30
2022-07-29T03:40:24.621Z,3.10
2022-07-29T03:42:55.170Z,2.97
2022-07-29T03:45:24.351Z,3.53
2022-07-29T03:48:02.691Z,3.80
2022-07-29T03:50:31.992Z,3.40
2022-07-29T03:53:00.399Z,3.25
2022-07-29T03:55:31.501Z,3.38
2022-07-29T03:58:01.264Z,2.92
2022-07-29T04:00:31.545Z,3.42
2022-07-29T04:03:01.913Z,3.75
2022-07-29T04:05:30.081Z,3.13
2022-07-29T04:07:58.222Z,3.45
2022-07-29T04:10:30.623Z,3.45
2022-07-29T04:13:00.760Z,4.45
2022-07-29T04:15:31.789Z,3.15
2022-07-29T04:18:01.737Z,3.58
2022-07-29T04:20:29.773Z,3.58
2022-07-29T04:22:57.923Z,3.10
2022-07-29T04:25:26.231Z,3.78
2022-07-29T04:28:03.349Z,3.65
2022-07-29T04:30:32.322Z,3.42
2022-07-29T04:33:02.881Z,3.58
2022-07-29T04:35:38.151Z,3.65
2022-07-29T04:38:07.821Z,3.05
2022-07-29T04:40:43.889Z,3.55
2022-07-29T04:43:14.176Z,3.60
2022-07-29T04:45:43.607Z,3.53
2022-07-29T04:48:13.056Z,3.55
2022-07-29T04:50:41.481Z,2.90
2022-07-29T04:53:09.645Z,3.00
2022-07-29T04:55:39.003Z,3.25
2022-07-29T04:58:07.491Z,3.30
2022-07-29T05:00:36.019Z,3.67
2022-07-29T05:03:04.303Z,3.05
2022-07-29T05:05:33.882Z,3.42
2022-07-29T05:08:02.098Z,3.47
2022-07-29T05:10:30.341Z,3.67
2022-07-29T05:12:58.510Z,3.55
2022-07-29T05:15:26.503Z,3.95
2022-07-29T05:17:54.631Z,3.55
2022-07-29T05:20:27.354Z,3.65
2022-07-29T05:22:57.052Z,3.90
2022-07-29T05:25:25.310Z,3.25
2022-07-29T05:30:40.038Z,3.50
2022-07-29T05:33:08.530Z,3.70
2022-07-29T05:36:00.384Z,4.90
2022-07-29T05:38:33.241Z,5.63
2022-07-29T05:41:01.432Z,5.85
2022-07-29T05:43:30.475Z,5.20
2022-07-29T05:45:59.324Z,6.32
2022-07-29T05:48:27.382Z,7.25
2022-07-29T05:50:55.937Z,5.93
2022-07-29T05:53:24.313Z,6.00
2022-07-29T05:55:53.921Z,5.72
2022-07-29T05:58:22.190Z,5.47
2022-07-29T06:00:54.780Z,5.80
2022-07-29T06:03:23.211Z,6.00
2022-07-29T06:05:51.645Z,5.63
2022-07-29T06:08:19.771Z,5.68
2022-07-29T06:10:48.061Z,5.57
2022-07-29T06:13:18.432Z,4.88
2022-07-29T06:15:46.548Z,5.38
2022-07-29T06:18:14.761Z,5.03
2022-07-29T06:20:43.936Z,4.45
2022-07-29T06:23:12.104Z,4.05
2022-07-29T06:25:41.881Z,4.32
2022-07-29T06:28:10.215Z,5.80
2022-07-29T06:30:39.906Z,5.57
2022-07-29T06:33:08.057Z,4.97
2022-07-29T06:35:41.217Z,4.20
2022-07-29T06:38:14.934Z,4.65
2022-07-29T06:41:07.182Z,4.90
2022-07-29T06:43:50.444Z,4.90
2022-07-29T06:46:23.566Z,5.03
2022-07-29T06:48:53.371Z,4.85
2022-07-29T06:51:23.714Z,4.45
2022-07-29T06:54:00.071Z,4.22
2022-07-29T06:56:31.928Z,5.68
2022-07-29T06:59:06.550Z,4.90
2022-07-29T07:01:36.591Z,4.80
2022-07-29T07:04:04.875Z,4.78
2022-07-29T07:06:32.836Z,4.40
2022-07-29T07:09:01.095Z,5.40
2022-07-29T07:11:29.945Z,4.78
2022-07-29T07:14:02.447Z,4.07
2022-07-29T07:16:32.756Z,5.10
2022-07-29T07:19:02.541Z,5.03
2022-07-29T07:21:30.959Z,4.50
2022-07-29T07:23:59.777Z,5.03
2022-07-29T07:26:28.605Z,4.63
2022-07-29T07:28:56.866Z,4.88
2022-07-29T07:31:25.025Z,4.15
2022-07-29T07:33:54.642Z,4.50
2022-07-29T07:36:25.390Z,4.40
2022-07-29T07:38:54.195Z,4.30
2022-07-29T07:41:23.805Z,4.90
2022-07-29T07:43:52.095Z,4.40
2022-07-29T07:46:20.981Z,4.45
2022-07-29T07:48:49.430Z,4.93
2022-07-29T07:51:17.585Z,4.40
2022-07-29T07:53:50.715Z,5.18
2022-07-29T07:56:19.147Z,4.57
2022-07-29T07:58:47.314Z,5.20
2022-07-29T08:01:15.670Z,5.85
2022-07-29T08:03:43.810Z,5.72
2022-07-29T08:06:12.215Z,5.78
2022-07-29T08:08:40.259Z,5.85
2022-07-29T08:11:10.109Z,5.55
2022-07-29T08:13:39.085Z,5.05
2022-07-29T08:16:14.349Z,5.35
2022-07-29T08:18:43.755Z,5.03
2022-07-29T08:21:14.779Z,5.20
2022-07-29T08:23:54.360Z,5.03
2022-07-29T08:26:27.557Z,5.03
2022-07-29T08:28:55.678Z,5.40
2022-07-29T08:31:23.918Z,5.25
2022-07-29T08:33:52.407Z,5.72
2022-07-29T08:36:22.266Z,5.38
2022-07-29T08:38:50.870Z,4.95
2022-07-29T08:41:20.224Z,5.25
2022-07-29T08:43:50.716Z,3.53
2022-07-29T08:46:19.248Z,2.90
2022-07-29T08:48:47.441Z,3.58
2022-07-29T08:51:17.157Z,3.90
2022-07-29T08:53:46.953Z,3.72
2022-07-29T08:56:15.584Z,3.97
2022-07-29T08:58:44.261Z,4.25
2022-07-29T09:01:36.368Z,4.47
2022-07-29T09:04:13.421Z,3.38
2022-07-29T09:06:47.471Z,3.50
2022-07-29T09:09:15.754Z,3.42
2022-07-29T09:11:44.347Z,2.65
2022-07-29T09:14:14.016Z,3.17
2022-07-29T09:17:02.177Z,2.65
2022-07-29T09:19:31.843Z,2.78
2022-07-29T09:22:03.089Z,2.55
2022-07-29T09:24:45.815Z,2.80
2022-07-29T09:27:23.211Z,2.00
2022-07-29T09:30:01.853Z,2.25
2022-07-29T09:32:31.458Z,2.10
2022-07-29T09:35:19.104Z,3.05
2022-07-29T09:37:47.822Z,2.30
2022-07-29T09:40:17.555Z,2.40
2022-07-29T09:42:47.148Z,2.45
2022-07-29T09:48:14.161Z,2.30
2022-07-29T09:50:44.983Z,2.20
2022-07-29T09:53:13.169Z,2.17
2022-07-29T09:55:49.642Z,2.10
2022-07-29T09:58:18.858Z,2.13
2022-07-29T10:00:48.041Z,2.33
2022-07-29T10:03:18.226Z,2.47
2022-07-29T10:05:47.495Z,2.80
2022-07-29T10:08:25.920Z,2.33
2022-07-29T10:11:10.876Z,3.00
2022-07-29T10:13:40.239Z,2.25
2022-07-29T10:16:08.554Z,2.20
2022-07-29T10:18:41.564Z,2.10
2022-07-29T10:21:11.453Z,2.83
2022-07-29T10:23:51.463Z,2.65
2022-07-29T10:26:20.567Z,2.33
2022-07-29T10:28:49.331Z,2.40
2022-07-29T10:31:41.948Z,2.33
2022-07-29T10:34:22.797Z,2.38
2022-07-29T10:37:01.671Z,2.00
2022-07-29T10:39:45.241Z,2.22
2022-07-29T10:42:29.867Z,2.00
2022-07-29T10:45:05.146Z,2.05
2022-07-29T10:47:35.383Z,2.15
2022-07-29T10:50:07.669Z,2.50
2022-07-29T10:52:54.917Z,2.00
2022-07-29T10:55:36.299Z,2.35
2022-07-29T10:58:16.271Z,2.20
2022-07-29T11:00:47.238Z,1.80
2022-07-29T11:03:49.369Z,1.88
2022-07-29T11:06:26.550Z,2.10
2022-07-29T11:09:30.284Z,1.92
2022-07-29T11:12:04.567Z,2.10
2022-07-29T11:15:00.543Z,2.13
2022-07-29T11:17:47.048Z,2.10
2022-07-29T11:20:34.889Z,1.95
2022-07-29T11:23:33.664Z,2.00
2022-07-29T11:26:18.625Z,1.83
2022-07-29T11:28:58.223Z,2.30
2022-07-29T11:31:39.877Z,1.95
2022-07-29T11:34:28.087Z,2.22
2022-07-29T11:37:27.661Z,2.05
2022-07-29T11:40:17.126Z,2.40
2022-07-29T11:42:52.030Z,1.85
2022-07-29T11:48:29.059Z,1.88
2022-07-29T11:51:02.987Z,1.73
2022-07-29T11:53:37.391Z,1.80
2022-07-29T11:56:11.023Z,2.13
2022-07-29T11:58:45.764Z,2.10
2022-07-29T12:01:18.265Z,2.00
2022-07-29T12:03:47.755Z,1.77
2022-07-29T12:06:18.265Z,1.80
2022-07-29T12:08:49.485Z,1.88
2022-07-29T12:11:22.993Z,2.33
2022-07-29T12:13:52.995Z,2.22
2022-07-29T12:16:29.262Z,1.85
2022-07-29T12:19:00.020Z,1.73
2022-07-29T12:21:29.467Z,1.90
2022-07-29T12:24:05.472Z,2.10
2022-07-29T12:26:50.352Z,2.25
2022-07-29T12:29:20.348Z,1.75
2022-07-29T12:32:02.726Z,2.10
2022-07-29T12:34:32.552Z,1.80
2022-07-29T12:37:01.228Z,1.92
2022-07-29T12:39:30.047Z,1.73
2022-07-29T12:42:04.070Z,2.05
2022-07-29T12:44:48.063Z,2.20
2022-07-29T12:47:17.245Z,2.00
2022-07-29T12:49:45.721Z,1.95
2022-07-29T12:52:28.137Z,2.38
2022-07-29T12:54:57.185Z,1.58
2022-07-29T12:57:27.710Z,2.20
2022-07-29T13:02:45.617Z,1.67
2022-07-29T13:07:55.563Z,1.65
2022-07-29T13:10:26.395Z,1.90
2022-07-29T13:13:07.857Z,1.90
2022-07-29T13:15:36.991Z,2.08
2022-07-29T13:18:06.881Z,1.50
2022-07-29T13:20:35.471Z,1.73
2022-07-29T13:23:03.936Z,2.20
2022-07-29T13:25:34.708Z,1.55
2022-07-29T13:28:06.280Z,1.65
2022-07-29T13:30:38.662Z,1.90
2022-07-29T13:33:13.415Z,1.90
2022-07-29T13:35:42.038Z,2.00
2022-07-29T13:38:10.565Z,1.55
2022-07-29T13:40:39.119Z,1.65
2022-07-29T13:43:11.159Z,2.08
2022-07-29T13:45:39.761Z,2.20
2022-07-29T13:48:09.259Z,1.80
2022-07-29T13:50:38.678Z,1.73
2022-07-29T13:53:07.338Z,1.90
2022-07-29T13:55:35.876Z,1.58
2022-07-29T13:58:05.087Z,1.75
2022-07-29T14:00:35.196Z,1.70
2022-07-29T14:03:03.765Z,1.70
2022-07-29T14:05:32.441Z,2.25
2022-07-29T14:08:02.596Z,1.23
2022-07-29T14:10:31.190Z,1.73
2022-07-29T14:12:59.315Z,1.83
2022-07-29T14:15:27.898Z,1.55
2022-07-29T14:17:57.854Z,1.88
2022-07-29T14:20:53.800Z,2.42
2022-07-29T14:25:55.139Z,1.80
2022-07-29T14:28:23.049Z,1.77
2022-07-29T14:30:50.986Z,1.60
2022-07-29T14:33:21.189Z,1.77
2022-07-29T14:35:49.631Z,2.08
2022-07-29T14:38:17.677Z,1.67
2022-07-29T14:40:45.658Z,2.10
2022-07-29T14:43:18.877Z,1.65
2022-07-29T14:45:49.723Z,1.70
2022-07-29T14:48:17.748Z,1.63
2022-07-29T14:50:47.289Z,1.50
2022-07-29T14:53:15.148Z,1.90
2022-07-29T14:55:43.279Z,1.55
2022-07-29T14:58:16.021Z,1.65
2022-07-29T15:00:44.640Z,1.83
2022-07-29T15:03:13.458Z,2.45
2022-07-29T15:05:53.528Z,1.60
2022-07-29T15:08:21.581Z,1.58
2022-07-29T15:10:49.609Z,1.63
2022-07-29T15:13:17.661Z,1.48
2022-07-29T15:15:46.797Z,1.65
2022-07-29T15:18:14.768Z,1.63
2022-07-29T15:20:54.998Z,1.73
2022-07-29T15:23:22.899Z,1.65
2022-07-29T15:25:50.727Z,2.40
2022-07-29T15:28:18.523Z,1.90
2022-07-29T15:30:46.701Z,2.33
2022-07-29T15:33:14.768Z,1.70
2022-07-29T15:35:42.789Z,1.50
2022-07-29T15:38:15.389Z,1.50
2022-07-29T15:40:45.609Z,1.65
2022-07-29T15:43:13.491Z,1.63
2022-07-29T15:45:42.946Z,1.42
2022-07-29T15:48:14.757Z,1.55
2022-07-29T15:50:43.397Z,1.67
2022-07-29T15:53:16.907Z,2.00
2022-07-29T15:55:45.588Z,2.05
2022-07-29T15:58:13.724Z,1.90
2022-07-29T16:00:41.693Z,1.75
2022-07-29T16:05:38.024Z,1.83
2022-07-29T16:08:06.563Z,2.30
2022-07-29T16:10:35.904Z,2.33
2022-07-29T16:13:08.073Z,2.13
2022-07-29T16:15:36.182Z,1.98
2022-07-29T16:18:04.221Z,2.08
2022-07-29T16:20:32.097Z,2.05
2022-07-29T16:23:01.085Z,1.73
2022-07-29T16:25:50.257Z,1.70
2022-07-29T16:28:18.939Z,1.83
2022-07-29T16:30:46.641Z,1.85
2022-07-29T16:33:14.928Z,1.95
2022-07-29T16:35:42.979Z,1.70
2022-07-29T16:38:11.207Z,1.50
2022-07-29T16:40:39.329Z,1.30
2022-07-29T16:43:08.910Z,1.50
2022-07-29T16:45:45.331Z,1.45
2022-07-29T16:48:14.829Z,1.67
2022-07-29T16:50:43.766Z,1.50
2022-07-29T16:53:12.203Z,1.50
2022-07-29T16:55:42.086Z,1.40
2022-07-29T16:58:11.579Z,1.50
2022-07-29T17:00:41.987Z,1.50
2022-07-29T17:03:10.439Z,1.85
2022-07-29T17:05:50.692Z,1.52
2022-07-29T17:08:22.412Z,1.40
2022-07-29T17:10:53.308Z,1.67
2022-07-29T17:13:21.879Z,1.35
2022-07-29T17:15:51.591Z,1.27
2022-07-29T17:18:19.988Z,1.48
2022-07-29T17:20:48.068Z,1.45
2022-07-29T17:23:16.369Z,1.83
2022-07-29T17:25:45.089Z,1.50
2022-07-29T17:28:13.429Z,1.50
2022-07-29T17:30:41.558Z,2.10
2022-07-29T17:33:11.250Z,1.60
2022-07-29T17:35:57.838Z,1.27
2022-07-29T17:38:26.082Z,1.33
2022-07-29T17:40:54.389Z,1.65
2022-07-29T17:43:22.639Z,1.17
2022-07-29T17:45:51.006Z,1.25
2022-07-29T17:48:21.029Z,1.42
2022-07-29T17:50:49.960Z,1.50
2022-07-29T17:53:18.497Z,1.60
2022-07-29T17:55:48.955Z,1.08
2022-07-29T17:58:17.582Z,1.40
2022-07-29T18:00:46.113Z,1.20
2022-07-29T18:03:14.595Z,2.63
2022-07-29T18:05:44.542Z,3.45
2022-07-29T18:08:12.738Z,2.05
2022-07-29T18:10:41.657Z,1.70
2022-07-29T18:15:43.798Z,1.95
2022-07-29T18:18:11.992Z,1.55
2022-07-29T18:20:43.954Z,1.90
2022-07-29T18:23:12.577Z,1.80
2022-07-29T18:25:41.075Z,1.92
2022-07-29T18:28:10.415Z,1.67
2022-07-29T18:30:39.044Z,2.15
2022-07-29T18:33:28.290Z,1.75
2022-07-29T18:36:10.608Z,1.77
2022-07-29T18:38:40.518Z,2.30
2022-07-29T18:41:08.897Z,1.90
2022-07-29T18:43:37.464Z,2.03
2022-07-29T18:46:07.142Z,1.98
2022-07-29T18:48:35.691Z,2.03
2022-07-29T18:51:09.429Z,1.90
2022-07-29T18:53:38.365Z,2.05
2022-07-29T18:56:06.672Z,1.80
2022-07-29T18:58:37.292Z,2.17
2022-07-29T19:01:06.077Z,2.00
2022-07-29T19:03:35.269Z,2.03
2022-07-29T19:06:05.384Z,1.95
2022-07-29T19:08:36.257Z,2.00
2022-07-29T19:11:04.691Z,2.20
2022-07-29T19:13:33.689Z,2.20
2022-07-29T19:16:02.197Z,1.77
2022-07-29T19:18:30.686Z,2.38
2022-07-29T19:20:59.145Z,2.47
2022-07-29T19:23:29.226Z,2.40
2022-07-29T19:25:57.953Z,1.95
2022-07-29T19:28:26.506Z,2.60
2022-07-29T19:30:55.125Z,1.88
2022-07-29T19:33:23.536Z,1.90
2022-07-29T19:35:55.014Z,2.22
2022-07-29T19:38:23.968Z,2.05
2022-07-29T19:40:54.074Z,1.92
2022-07-29T19:43:50.915Z,2.10
2022-07-29T19:46:11.604Z,2.00
2022-07-29T19:48:40.363Z,2.25
2022-07-29T19:51:09.103Z,1.92
2022-07-29T19:53:37.375Z,1.98
2022-07-29T19:56:08.778Z,2.08
2022-07-29T19:58:37.717Z,1.92
2022-07-29T20:01:10.223Z,2.10
2022-07-29T20:03:40.352Z,2.13
2022-07-29T20:06:08.933Z,1.85
2022-07-29T20:08:37.367Z,2.15
2022-07-29T20:11:07.258Z,2.03
2022-07-29T20:13:36.004Z,1.80
2022-07-29T20:16:06.814Z,2.25
2022-07-29T20:18:35.484Z,2.10
2022-07-29T20:21:04.939Z,2.15
2022-07-29T20:23:33.808Z,2.42
2022-07-29T20:26:05.088Z,2.10
2022-07-29T20:28:40.331Z,2.00
2022-07-29T20:31:09.836Z,2.30
2022-07-29T20:33:38.346Z,2.40
2022-07-29T20:36:07.305Z,2.53
2022-07-29T20:38:36.114Z,2.13
2022-07-29T20:41:05.325Z,2.10
2022-07-29T20:43:37.440Z,2.17
2022-07-29T20:46:09.204Z,2.10
2022-07-29T20:48:37.826Z,2.20
2022-07-29T20:51:06.438Z,2.38
2022-07-29T20:53:34.834Z,2.55
2022-07-29T20:56:03.524Z,2.42
2022-07-29T20:58:33.173Z,1.92
2022-07-29T21:01:02.041Z,2.00
2022-07-29T21:03:32.996Z,2.25
2022-07-29T21:06:01.624Z,2.40
2022-07-29T21:08:30.128Z,2.08
2022-07-29T21:10:58.806Z,2.30
2022-07-29T21:13:27.314Z,2.40
2022-07-29T21:16:02.009Z,2.28
2022-07-29T21:18:37.783Z,2.20
2022-07-29T21:21:06.245Z,2.45
2022-07-29T21:23:34.562Z,2.22
2022-07-29T21:26:03.203Z,2.10
2022-07-29T21:28:41.148Z,1.75
2022-07-29T21:31:12.777Z,2.30
2022-07-29T21:33:44.622Z,2.53
2022-07-29T21:36:47.799Z,2.35
2022-07-29T21:39:07.382Z,2.38
2022-07-29T21:41:35.933Z,2.20
2022-07-29T21:44:04.354Z,2.40
2022-07-29T21:46:33.293Z,2.53
2022-07-29T21:49:03.484Z,2.53
2022-07-29T21:51:32.253Z,2.55
2022-07-29T21:54:00.595Z,2.13
2022-07-29T21:56:30.343Z,3.13
2022-07-29T21:59:00.852Z,2.55
2022-07-29T22:01:29.463Z,2.70
2022-07-29T22:04:09.890Z,2.70
2022-07-29T22:06:38.872Z,2.25
2022-07-29T22:09:07.465Z,2.35
2022-07-29T22:11:37.154Z,3.10
2022-07-29T22:14:06.213Z,2.80
2022-07-29T22:16:34.686Z,2.75
2022-07-29T22:19:04.339Z,2.83
2022-07-29T22:21:34.563Z,2.97
2022-07-29T22:24:03.562Z,2.35
2022-07-29T22:26:32.195Z,2.38
2022-07-29T22:29:00.911Z,2.63
2022-07-29T22:31:29.444Z,2.75
2022-07-29T22:33:58.151Z,2.65
2022-07-29T22:36:27.445Z,2.80
2022-07-29T22:38:57.661Z,2.90
2022-07-29T22:41:26.329Z,2.95
2022-07-29T22:43:54.739Z,2.80
2022-07-29T22:46:24.477Z,2.55
2022-07-29T22:48:53.035Z,2.40
2022-07-29T22:51:21.722Z,3.15
2022-07-29T22:53:50.214Z,3.05
2022-07-29T22:56:20.769Z,2.72
2022-07-29T22:58:49.593Z,3.20
2022-07-29T23:01:37.403Z,3.00
2022-07-29T23:04:07.142Z,2.78
2022-07-29T23:06:35.659Z,3.03
2022-07-29T23:09:04.461Z,3.20
2022-07-29T23:11:34.450Z,3.47
2022-07-29T23:14:03.150Z,2.85
2022-07-29T23:16:31.756Z,3.60
2022-07-29T23:19:01.501Z,3.67
2022-07-29T23:21:30.021Z,3.22
2022-07-29T23:23:58.643Z,3.30
2022-07-29T23:26:27.198Z,3.50
2022-07-29T23:28:57.297Z,3.05
2022-07-29T23:31:26.181Z,3.40
2022-07-29T23:33:54.649Z,4.05
2022-07-29T23:36:23.371Z,3.58
2022-07-29T23:38:52.063Z,3.15
2022-07-29T23:41:21.830Z,3.35
2022-07-29T23:43:50.550Z,3.90
2022-07-29T23:46:23.876Z,3.75
2022-07-29T23:48:52.877Z,3.78
2022-07-29T23:51:21.423Z,3.50
2022-07-29T23:53:53.243Z,3.53
2022-07-29T23:56:23.093Z,3.42
2022-07-29T23:58:51.923Z,3.70
